sensor_id;sensor_type;location;lat;lon;timestamp;pressure;altitude;pressure_sealevel;temperature;humidity
47897;BME280;39629;51.400;5.494;2023-02-19T00:00:03;101658.13;;;9.31;100.00
47897;BME280;39629;51.400;5.494;2023-02-19T00:05:13;101656.47;;;9.36;100.00
47897;BME280;39629;51.400;5.494;2023-02-19T00:10:15;101673.09;;;9.36;100.00
47897;BME280;39629;51.400;5.494;2023-02-19T00:15:18;101660.06;;;9.43;100.00
47897;BME280;39629;51.400;5.494;2023-02-19T00:20:19;101658.16;;;9.34;100.00
47897;BME280;39629;51.400;5.494;2023-02-19T00:25:21;101657.31;;;9.35;100.00
47897;BME280;39629;51.400;5.494;2023-02-19T00:30:24;101657.25;;;9.30;100.00
47897;BME280;39629;51.400;5.494;2023-02-19T00:35:25;101665.13;;;9.29;100.00
47897;BME280;39629;51.400;5.494;2023-02-19T00:40:27;101666.84;;;9.28;100.00
47897;BME280;39629;51.400;5.494;2023-02-19T00:45:30;101665.13;;;9.30;100.00
47897;BME280;39629;51.400;5.494;2023-02-19T00:50:34;101662.50;;;9.29;100.00
47897;BME280;39629;51.400;5.494;2023-02-19T00:55:35;101658.25;;;9.37;100.00
47897;BME280;39629;51.400;5.494;2023-02-19T01:00:38;101675.66;;;9.32;100.00
47897;BME280;39629;51.400;5.494;2023-02-19T01:05:40;101670.38;;;9.29;100.00
47897;BME280;39629;51.400;5.494;2023-02-19T01:10:42;101676.44;;;9.26;100.00
47897;BME280;39629;51.400;5.494;2023-02-19T01:15:45;101679.97;;;9.28;100.00
47897;BME280;39629;51.400;5.494;2023-02-19T01:20:47;101675.56;;;9.27;100.00
47897;BME280;39629;51.400;5.494;2023-02-19T01:25:48;101676.44;;;9.26;100.00
47897;BME280;39629;51.400;5.494;2023-02-19T01:30:51;101690.56;;;9.33;100.00
47897;BME280;39629;51.400;5.494;2023-02-19T01:35:53;101694.09;;;9.35;100.00
47897;BME280;39629;51.400;5.494;2023-02-19T01:40:56;101687.06;;;9.34;100.00
47897;BME280;39629;51.400;5.494;2023-02-19T01:45:59;101693.28;;;9.39;100.00
47897;BME280;39629;51.400;5.494;2023-02-19T01:51:04;101701.09;;;9.34;100.00
47897;BME280;39629;51.400;5.494;2023-02-19T01:56:07;101695.03;;;9.37;100.00
47897;BME280;39629;51.400;5.494;2023-02-19T02:01:11;101693.13;;;9.30;100.00
47897;BME280;39629;51.400;5.494;2023-02-19T02:06:17;101696.69;;;9.32;100.00
47897;BME280;39629;51.400;5.494;2023-02-19T02:11:21;101683.56;;;9.33;100.00
47897;BME280;39629;51.400;5.494;2023-02-19T02:16:31;101683.63;;;9.38;100.00
47897;BME280;39629;51.400;5.494;2023-02-19T02:27:15;101687.84;;;9.28;100.00
47897;BME280;39629;51.400;5.494;2023-02-19T02:32:23;101700.13;;;9.28;100.00
47897;BME280;39629;51.400;5.494;2023-02-19T02:37:29;101700.28;;;9.39;100.00
47897;BME280;39629;51.400;5.494;2023-02-19T02:42:34;101694.06;;;9.32;100.00
47897;BME280;39629;51.400;5.494;2023-02-19T02:47:44;101700.91;;;9.24;100.00
47897;BME280;39629;51.400;5.494;2023-02-19T02:52:50;101705.44;;;9.32;100.00
47897;BME280;39629;51.400;5.494;2023-02-19T02:58:11;101709.66;;;9.23;100.00
47897;BME280;39629;51.400;5.494;2023-02-19T03:03:18;101717.31;;;9.10;100.00
47897;BME280;39629;51.400;5.494;2023-02-19T03:08:24;101713.69;;;9.03;100.00
47897;BME280;39629;51.400;5.494;2023-02-19T03:13:35;101728.38;;;8.94;100.00
47897;BME280;39629;51.400;5.494;2023-02-19T03:19:04;101731.78;;;8.90;100.00
47897;BME280;39629;51.400;5.494;2023-02-19T03:24:31;101724.66;;;8.82;100.00
47897;BME280;39629;51.400;5.494;2023-02-19T03:29:56;101731.56;;;8.77;100.00
47897;BME280;39629;51.400;5.494;2023-02-19T03:35:03;101738.63;;;8.81;100.00
47897;BME280;39629;51.400;5.494;2023-02-19T03:40:08;101733.38;;;8.81;100.00
47897;BME280;39629;51.400;5.494;2023-02-19T03:45:39;101737.69;;;8.76;100.00
47897;BME280;39629;51.400;5.494;2023-02-19T03:50:51;101747.38;;;8.80;100.00
47897;BME280;39629;51.400;5.494;2023-02-19T03:56:05;101754.22;;;8.72;100.00
47897;BME280;39629;51.400;5.494;2023-02-19T04:01:15;101767.44;;;8.77;100.00
47897;BME280;39629;51.400;5.494;2023-02-19T04:06:22;101766.41;;;8.70;100.00
47897;BME280;39629;51.400;5.494;2023-02-19T04:11:27;101773.25;;;8.62;100.00
47897;BME280;39629;51.400;5.494;2023-02-19T04:16:38;101785.47;;;8.60;100.00
47897;BME280;39629;51.400;5.494;2023-02-19T04:21:43;101790.81;;;8.64;100.00
47897;BME280;39629;51.400;5.494;2023-02-19T04:26:45;101795.97;;;8.60;100.00
47897;BME280;39629;51.400;5.494;2023-02-19T04:31:47;101799.50;;;8.62;100.00
47897;BME280;39629;51.400;5.494;2023-02-19T04:36:50;101799.44;;;8.59;100.00
47897;BME280;39629;51.400;5.494;2023-02-19T04:41:52;101813.59;;;8.67;100.00
47897;BME280;39629;51.400;5.494;2023-02-19T04:46:54;101823.13;;;8.63;100.00
47897;BME280;39629;51.400;5.494;2023-02-19T04:51:57;101829.28;;;8.64;100.00
47897;BME280;39629;51.400;5.494;2023-02-19T04:56:58;101830.97;;;8.62;100.00
47897;BME280;39629;51.400;5.494;2023-02-19T05:02:00;101843.19;;;8.60;100.00
47897;BME280;39629;51.400;5.494;2023-02-19T05:07:03;101851.97;;;8.62;100.00
47897;BME280;39629;51.400;5.494;2023-02-19T05:12:05;101863.13;;;8.51;100.00
47897;BME280;39629;51.400;5.494;2023-02-19T05:17:06;101870.72;;;8.39;100.00
47897;BME280;39629;51.400;5.494;2023-02-19T05:22:09;101874.97;;;8.34;100.00
47897;BME280;39629;51.400;5.494;2023-02-19T05:27:11;101881.00;;;8.30;100.00
47897;BME280;39629;51.400;5.494;2023-02-19T05:32:13;101884.66;;;8.37;100.00
47897;BME280;39629;51.400;5.494;2023-02-19T05:37:16;101881.00;;;8.30;100.00
47897;BME280;39629;51.400;5.494;2023-02-19T05:42:17;101885.38;;;8.29;100.00
47897;BME280;39629;51.400;5.494;2023-02-19T05:47:19;101884.41;;;8.26;100.00
47897;BME280;39629;51.400;5.494;2023-02-19T05:52:22;101890.53;;;8.26;100.00
47897;BME280;39629;51.400;5.494;2023-02-19T05:57:23;101896.59;;;8.24;100.00
47897;BME280;39629;51.400;5.494;2023-02-19T06:02:25;101893.03;;;8.22;100.00
47897;BME280;39629;51.400;5.494;2023-02-19T06:07:29;101896.53;;;8.21;100.00
47897;BME280;39629;51.400;5.494;2023-02-19T06:12:31;101892.91;;;8.15;100.00
47897;BME280;39629;51.400;5.494;2023-02-19T06:17:33;101898.81;;;8.07;100.00
47897;BME280;39629;51.400;5.494;2023-02-19T06:22:36;101899.75;;;8.10;100.00
47897;BME280;39629;51.400;5.494;2023-02-19T06:27:37;101910.31;;;8.13;100.00
47897;BME280;39629;51.400;5.494;2023-02-19T06:32:39;101914.63;;;8.10;100.00
47897;BME280;39629;51.400;5.494;2023-02-19T06:37:45;101915.50;;;8.10;100.00
47897;BME280;39629;51.400;5.494;2023-02-19T06:42:46;101936.41;;;8.07;100.00
47897;BME280;39629;51.400;5.494;2023-02-19T06:47:48;101944.38;;;8.12;100.00
47897;BME280;39629;51.400;5.494;2023-02-19T06:52:51;101953.47;;;8.26;100.00
47897;BME280;39629;51.400;5.494;2023-02-19T06:57:52;101956.81;;;8.19;100.00
47897;BME280;39629;51.400;5.494;2023-02-19T07:02:54;101968.25;;;8.23;100.00
47897;BME280;39629;51.400;5.494;2023-02-19T07:07:57;101965.63;;;8.23;100.00
47897;BME280;39629;51.400;5.494;2023-02-19T07:12:58;101964.84;;;8.27;100.00
47897;BME280;39629;51.400;5.494;2023-02-19T07:18:00;101977.13;;;8.28;100.00
47897;BME280;39629;51.400;5.494;2023-02-19T07:23:03;101981.56;;;8.30;100.00
47897;BME280;39629;51.400;5.494;2023-02-19T07:28:04;101982.38;;;8.28;100.00
47897;BME280;39629;51.400;5.494;2023-02-19T07:33:06;101995.56;;;8.31;100.00
47897;BME280;39629;51.400;5.494;2023-02-19T07:38:09;102013.84;;;8.28;100.00
47897;BME280;39629;51.400;5.494;2023-02-19T07:43:10;102012.66;;;8.15;100.00
47897;BME280;39629;51.400;5.494;2023-02-19T07:48:12;102034.25;;;8.06;100.00
47897;BME280;39629;51.400;5.494;2023-02-19T07:53:15;102038.53;;;8.03;100.00
47897;BME280;39629;51.400;5.494;2023-02-19T07:58:17;102048.13;;;8.02;100.00
47897;BME280;39629;51.400;5.494;2023-02-19T08:03:18;102068.16;;;8.00;100.00
47897;BME280;39629;51.400;5.494;2023-02-19T08:08:21;102074.19;;;7.96;100.00
47897;BME280;39629;51.400;5.494;2023-02-19T08:13:23;102093.31;;;7.93;100.00
47897;BME280;39629;51.400;5.494;2023-02-19T08:18:28;102095.09;;;7.94;100.00
47897;BME280;39629;51.400;5.494;2023-02-19T08:23:31;102095.41;;;8.05;100.00
47897;BME280;39629;51.400;5.494;2023-02-19T08:28:33;102104.28;;;8.10;100.00
47897;BME280;39629;51.400;5.494;2023-02-19T08:33:36;102111.63;;;8.24;100.00
47897;BME280;39629;51.400;5.494;2023-02-19T08:38:39;102112.50;;;8.24;100.00
47897;BME280;39629;51.400;5.494;2023-02-19T08:43:41;102117.78;;;8.26;100.00
47897;BME280;39629;51.400;5.494;2023-02-19T08:48:43;102111.78;;;8.30;100.00
47897;BME280;39629;51.400;5.494;2023-02-19T08:53:46;102113.91;;;8.43;100.00
47897;BME280;39629;51.400;5.494;2023-02-19T08:58:47;102122.13;;;8.57;100.00
47897;BME280;39629;51.400;5.494;2023-02-19T09:03:49;102124.78;;;8.59;100.00
47897;BME280;39629;51.400;5.494;2023-02-19T09:08:52;102136.13;;;8.58;100.00
47897;BME280;39629;51.400;5.494;2023-02-19T09:13:55;102153.63;;;8.57;100.00
47897;BME280;39629;51.400;5.494;2023-02-19T09:18:56;102149.19;;;8.55;100.00
47897;BME280;39629;51.400;5.494;2023-02-19T09:23:59;102145.97;;;8.65;100.00
47897;BME280;39629;51.400;5.494;2023-02-19T09:29:01;102144.56;;;8.79;100.00
47897;BME280;39629;51.400;5.494;2023-02-19T09:34:04;102139.41;;;8.82;100.00
47897;BME280;39629;51.400;5.494;2023-02-19T09:39:08;102149.78;;;8.78;100.00
47897;BME280;39629;51.400;5.494;2023-02-19T09:44:14;102156.16;;;8.88;100.00
47897;BME280;39629;51.400;5.494;2023-02-19T09:49:18;102157.34;;;8.99;100.00
47897;BME280;39629;51.400;5.494;2023-02-19T09:54:24;102154.00;;;9.06;100.00
47897;BME280;39629;51.400;5.494;2023-02-19T09:59:29;102188.66;;;9.26;100.00
47897;BME280;39629;51.400;5.494;2023-02-19T10:04:32;102192.88;;;9.19;100.00
47897;BME280;39629;51.400;5.494;2023-02-19T10:09:35;102203.03;;;9.42;100.00
47897;BME280;39629;51.400;5.494;2023-02-19T10:14:39;102201.50;;;9.52;100.00
47897;BME280;39629;51.400;5.494;2023-02-19T10:19:42;102209.69;;;9.64;100.00
47897;BME280;39629;51.400;5.494;2023-02-19T10:24:48;102207.78;;;9.57;100.00
47897;BME280;39629;51.400;5.494;2023-02-19T10:29:51;102225.94;;;9.48;100.00
47897;BME280;39629;51.400;5.494;2023-02-19T10:35:08;102228.75;;;9.56;100.00
47897;BME280;39629;51.400;5.494;2023-02-19T10:40:16;102236.25;;;9.77;100.00
47897;BME280;39629;51.400;5.494;2023-02-19T10:45:22;102268.66;;;9.76;100.00
47897;BME280;39629;51.400;5.494;2023-02-19T10:50:27;102269.41;;;9.70;100.00
47897;BME280;39629;51.400;5.494;2023-02-19T10:55:33;102285.97;;;9.67;100.00
47897;BME280;39629;51.400;5.494;2023-02-19T11:00:35;102286.41;;;9.49;100.00
47897;BME280;39629;51.400;5.494;2023-02-19T11:05:37;102278.06;;;9.66;100.00
47897;BME280;39629;51.400;5.494;2023-02-19T11:10:46;102285.53;;;10.23;100.00
47897;BME280;39629;51.400;5.494;2023-02-19T11:15:50;102275.72;;;10.16;100.00
47897;BME280;39629;51.400;5.494;2023-02-19T11:20:55;102276.22;;;10.41;100.00
47897;BME280;39629;51.400;5.494;2023-02-19T11:26:02;102274.78;;;10.14;100.00
47897;BME280;39629;51.400;5.494;2023-02-19T11:31:14;102265.06;;;10.53;100.00
47897;BME280;39629;51.400;5.494;2023-02-19T11:36:30;102258.97;;;10.55;100.00
47897;BME280;39629;51.400;5.494;2023-02-19T11:42:13;102255.31;;;11.42;100.00
47897;BME280;39629;51.400;5.494;2023-02-19T11:47:50;102255.06;;;11.28;100.00
47897;BME280;39629;51.400;5.494;2023-02-19T11:53:05;102248.41;;;11.50;100.00
47897;BME280;39629;51.400;5.494;2023-02-19T11:58:34;102244.94;;;11.54;100.00
47897;BME280;39629;51.400;5.494;2023-02-19T12:03:53;102243.63;;;11.24;100.00
47897;BME280;39629;51.400;5.494;2023-02-19T12:09:11;102261.50;;;10.94;100.00
47897;BME280;39629;51.400;5.494;2023-02-19T12:14:49;102256.28;;;10.52;100.00
47897;BME280;39629;51.400;5.494;2023-02-19T12:20:05;102238.91;;;10.61;100.00
47897;BME280;39629;51.400;5.494;2023-02-19T12:25:37;102243.19;;;10.55;100.00
47897;BME280;39629;51.400;5.494;2023-02-19T12:31:04;102244.72;;;10.44;100.00
47897;BME280;39629;51.400;5.494;2023-02-19T12:36:16;102249.81;;;10.81;100.00
47897;BME280;39629;51.400;5.494;2023-02-19T12:41:37;102243.97;;;10.96;100.00
47897;BME280;39629;51.400;5.494;2023-02-19T12:46:45;102247.66;;;11.04;100.00
47897;BME280;39629;51.400;5.494;2023-02-19T12:51:49;102256.56;;;11.12;100.00
47897;BME280;39629;51.400;5.494;2023-02-19T12:56:54;102255.41;;;10.98;100.00
47897;BME280;39629;51.400;5.494;2023-02-19T13:02:02;102260.31;;;10.79;100.00
47897;BME280;39629;51.400;5.494;2023-02-19T13:07:08;102259.03;;;10.59;100.00
47897;BME280;39629;51.400;5.494;2023-02-19T13:12:16;102267.16;;;10.69;100.00
47897;BME280;39629;51.400;5.494;2023-02-19T13:17:25;102284.50;;;10.58;100.00
47897;BME280;39629;51.400;5.494;2023-02-19T13:22:33;102279.91;;;10.49;100.00
47897;BME280;39629;51.400;5.494;2023-02-19T13:28:04;102278.56;;;10.70;100.00
47897;BME280;39629;51.400;5.494;2023-02-19T13:33:22;102275.81;;;10.64;100.00
47897;BME280;39629;51.400;5.494;2023-02-19T13:38:27;102279.09;;;10.53;100.00
47897;BME280;39629;51.400;5.494;2023-02-19T13:43:31;102296.56;;;10.48;100.00
47897;BME280;39629;51.400;5.494;2023-02-19T13:48:37;102305.13;;;10.39;100.00
47897;BME280;39629;51.400;5.494;2023-02-19T13:53:55;102305.84;;;10.31;100.00
47897;BME280;39629;51.400;5.494;2023-02-19T13:58:58;102320.28;;;10.10;100.00
47897;BME280;39629;51.400;5.494;2023-02-19T14:04:08;102337.47;;;9.94;100.00
47897;BME280;39629;51.400;5.494;2023-02-19T14:09:43;102352.03;;;9.46;100.00
47897;BME280;39629;51.400;5.494;2023-02-19T14:14:46;102354.91;;;9.22;100.00
47897;BME280;39629;51.400;5.494;2023-02-19T14:19:52;102372.88;;;9.07;100.00
47897;BME280;39629;51.400;5.494;2023-02-19T14:24:54;102373.53;;;8.99;100.00
47897;BME280;39629;51.400;5.494;2023-02-19T14:29:58;102383.59;;;8.85;100.00
47897;BME280;39629;51.400;5.494;2023-02-19T14:35:01;102386.06;;;8.79;100.00
47897;BME280;39629;51.400;5.494;2023-02-19T14:40:06;102379.41;;;8.62;100.00
47897;BME280;39629;51.400;5.494;2023-02-19T14:45:08;102382.41;;;8.74;100.00
47897;BME280;39629;51.400;5.494;2023-02-19T14:50:15;102367.28;;;8.65;100.00
47897;BME280;39629;51.400;5.494;2023-02-19T14:55:24;102373.88;;;8.51;100.00
47897;BME280;39629;51.400;5.494;2023-02-19T15:00:29;102370.63;;;8.60;100.00
47897;BME280;39629;51.400;5.494;2023-02-19T15:05:36;102365.09;;;8.50;100.00
47897;BME280;39629;51.400;5.494;2023-02-19T15:10:40;102366.25;;;8.60;100.00
47897;BME280;39629;51.400;5.494;2023-02-19T15:15:44;102348.50;;;8.51;100.00
47897;BME280;39629;51.400;5.494;2023-02-19T15:20:48;102341.09;;;8.38;100.00
47897;BME280;39629;51.400;5.494;2023-02-19T15:25:50;102333.22;;;8.38;100.00
47897;BME280;39629;51.400;5.494;2023-02-19T15:31:03;102332.22;;;8.33;100.00
47897;BME280;39629;51.400;5.494;2023-02-19T15:36:10;102335.69;;;8.32;100.00
47897;BME280;39629;51.400;5.494;2023-02-19T15:41:18;102345.00;;;8.22;100.00
47897;BME280;39629;51.400;5.494;2023-02-19T15:46:23;102349.91;;;8.11;100.00
47897;BME280;39629;51.400;5.494;2023-02-19T15:51:30;102363.84;;;8.10;100.00
47897;BME280;39629;51.400;5.494;2023-02-19T15:56:43;102379.56;;;8.38;100.00
47897;BME280;39629;51.400;5.494;2023-02-19T16:01:47;102384.09;;;8.14;100.00
47897;BME280;39629;51.400;5.494;2023-02-19T16:06:53;102405.81;;;8.10;100.00
47897;BME280;39629;51.400;5.494;2023-02-19T16:11:57;102406.25;;;7.97;100.00
47897;BME280;39629;51.400;5.494;2023-02-19T16:17:10;102403.09;;;7.81;100.00
47897;BME280;39629;51.400;5.494;2023-02-19T16:22:16;102408.13;;;7.49;100.00
47897;BME280;39629;51.400;5.494;2023-02-19T16:27:30;102401.13;;;7.48;100.00
47897;BME280;39629;51.400;5.494;2023-02-19T16:32:33;102419.97;;;7.38;100.00
47897;BME280;39629;51.400;5.494;2023-02-19T16:37:38;102434.28;;;7.24;100.00
47897;BME280;39629;51.400;5.494;2023-02-19T16:48:23;102449.94;;;7.22;100.00
47897;BME280;39629;51.400;5.494;2023-02-19T16:53:26;102464.91;;;7.25;100.00
47897;BME280;39629;51.400;5.494;2023-02-19T16:58:29;102478.91;;;7.27;100.00
47897;BME280;39629;51.400;5.494;2023-02-19T17:03:31;102473.53;;;7.22;100.00
47897;BME280;39629;51.400;5.494;2023-02-19T17:08:35;102466.44;;;7.20;100.00
47897;BME280;39629;51.400;5.494;2023-02-19T17:13:38;102459.31;;;7.15;100.00
47897;BME280;39629;51.400;5.494;2023-02-19T17:18:39;102459.19;;;7.12;100.00
47897;BME280;39629;51.400;5.494;2023-02-19T17:23:43;102468.59;;;7.07;100.00
47897;BME280;39629;51.400;5.494;2023-02-19T17:28:44;102479.88;;;7.06;100.00
47897;BME280;39629;51.400;5.494;2023-02-19T17:33:46;102493.84;;;7.05;100.00
47897;BME280;39629;51.400;5.494;2023-02-19T17:38:50;102492.56;;;6.95;100.00
47897;BME280;39629;51.400;5.494;2023-02-19T17:43:51;102482.63;;;6.87;100.00
47897;BME280;39629;51.400;5.494;2023-02-19T17:48:54;102486.78;;;6.81;100.00
47897;BME280;39629;51.400;5.494;2023-02-19T17:53:57;102483.00;;;6.73;100.00
47897;BME280;39629;51.400;5.494;2023-02-19T17:58:58;102499.97;;;6.62;100.00
47897;BME280;39629;51.400;5.494;2023-02-19T18:04:00;102508.53;;;6.58;100.00
47897;BME280;39629;51.400;5.494;2023-02-19T18:09:03;102518.94;;;6.56;100.00
47897;BME280;39629;51.400;5.494;2023-02-19T18:14:05;102519.59;;;6.51;100.00
47897;BME280;39629;51.400;5.494;2023-02-19T18:19:06;102523.03;;;6.50;100.00
47897;BME280;39629;51.400;5.494;2023-02-19T18:24:09;102517.53;;;6.43;100.00
47897;BME280;39629;51.400;5.494;2023-02-19T18:29:11;102522.63;;;6.40;100.00
47897;BME280;39629;51.400;5.494;2023-02-19T18:34:17;102530.91;;;6.30;100.00
47897;BME280;39629;51.400;5.494;2023-02-19T18:39:20;102532.75;;;6.11;100.00
47897;BME280;39629;51.400;5.494;2023-02-19T18:44:23;102532.69;;;6.10;100.00
47897;BME280;39629;51.400;5.494;2023-02-19T18:49:25;102530.31;;;5.95;100.00
47897;BME280;39629;51.400;5.494;2023-02-19T18:54:30;102525.28;;;5.80;100.00
47897;BME280;39629;51.400;5.494;2023-02-19T18:59:33;102522.06;;;5.66;100.00
47897;BME280;39629;51.400;5.494;2023-02-19T19:04:35;102527.16;;;5.63;100.00
47897;BME280;39629;51.400;5.494;2023-02-19T19:09:39;102519.19;;;5.60;100.00
47897;BME280;39629;51.400;5.494;2023-02-19T19:14:40;102534.31;;;5.48;100.00
47897;BME280;39629;51.400;5.494;2023-02-19T19:19:42;102543.38;;;5.36;100.00
47897;BME280;39629;51.400;5.494;2023-02-19T19:24:45;102538.97;;;5.35;100.00
47897;BME280;39629;51.400;5.494;2023-02-19T19:29:47;102540.06;;;5.21;100.00
47897;BME280;39629;51.400;5.494;2023-02-19T19:34:49;102537.03;;;5.11;100.00
47897;BME280;39629;51.400;5.494;2023-02-19T19:39:52;102550.28;;;4.98;100.00
47897;BME280;39629;51.400;5.494;2023-02-19T19:44:53;102540.13;;;4.85;100.00
47897;BME280;39629;51.400;5.494;2023-02-19T19:49:56;102549.22;;;4.93;100.00
47897;BME280;39629;51.400;5.494;2023-02-19T19:54:59;102544.22;;;4.80;100.00
47897;BME280;39629;51.400;5.494;2023-02-19T20:00:01;102552.50;;;4.71;100.00
47897;BME280;39629;51.400;5.494;2023-02-19T20:05:12;102547.09;;;4.68;100.00
47897;BME280;39629;51.400;5.494;2023-02-19T20:10:17;102545.69;;;4.56;100.00
47897;BME280;39629;51.400;5.494;2023-02-19T20:15:20;102563.06;;;4.56;100.00
47897;BME280;39629;51.400;5.494;2023-02-19T20:20:22;102563.50;;;4.47;100.00
47897;BME280;39629;51.400;5.494;2023-02-19T20:25:25;102561.81;;;4.31;100.00
47897;BME280;39629;51.400;5.494;2023-02-19T20:30:26;102556.59;;;4.31;100.00
47897;BME280;39629;51.400;5.494;2023-02-19T20:35:28;102560.22;;;4.17;100.00
47897;BME280;39629;51.400;5.494;2023-02-19T20:40:32;102563.00;;;4.03;100.00
47897;BME280;39629;51.400;5.494;2023-02-19T20:45:34;102568.31;;;4.05;100.00
47897;BME280;39629;51.400;5.494;2023-02-19T20:50:36;102566.56;;;3.87;100.00
47897;BME280;39629;51.400;5.494;2023-02-19T20:55:39;102554.25;;;3.85;100.00
47897;BME280;39629;51.400;5.494;2023-02-19T21:00:41;102538.06;;;3.74;100.00
47897;BME280;39629;51.400;5.494;2023-02-19T21:05:42;102543.84;;;3.68;100.00
47897;BME280;39629;51.400;5.494;2023-02-19T21:10:45;102544.66;;;3.67;100.00
47897;BME280;39629;51.400;5.494;2023-02-19T21:15:47;102541.66;;;3.60;100.00
47897;BME280;39629;51.400;5.494;2023-02-19T21:20:49;102537.75;;;3.51;100.00
47897;BME280;39629;51.400;5.494;2023-02-19T21:25:51;102547.81;;;3.45;100.00
47897;BME280;39629;51.400;5.494;2023-02-19T21:30:53;102547.59;;;3.40;100.00
47897;BME280;39629;51.400;5.494;2023-02-19T21:35:55;102555.31;;;3.39;100.00
47897;BME280;39629;51.400;5.494;2023-02-19T21:40:58;102558.88;;;3.41;100.00
47897;BME280;39629;51.400;5.494;2023-02-19T21:46:00;102544.47;;;3.31;100.00
47897;BME280;39629;51.400;5.494;2023-02-19T21:51:02;102529.94;;;3.35;100.00
47897;BME280;39629;51.400;5.494;2023-02-19T21:56:05;102513.75;;;3.40;100.00
47897;BME280;39629;51.400;5.494;2023-02-19T22:01:07;102502.91;;;3.49;100.00
47897;BME280;39629;51.400;5.494;2023-02-19T22:06:08;102501.03;;;3.47;100.00
47897;BME280;39629;51.400;5.494;2023-02-19T22:11:11;102524.31;;;3.44;100.00
47897;BME280;39629;51.400;5.494;2023-02-19T22:16:13;102531.78;;;3.54;100.00
47897;BME280;39629;51.400;5.494;2023-02-19T22:21:16;102527.72;;;3.59;100.00
47897;BME280;39629;51.400;5.494;2023-02-19T22:26:20;102551.81;;;3.55;100.00
47897;BME280;39629;51.400;5.494;2023-02-19T22:31:23;102537.06;;;3.72;100.00
47897;BME280;39629;51.400;5.494;2023-02-19T22:36:27;102530.31;;;3.43;100.00
47897;BME280;39629;51.400;5.494;2023-02-19T22:41:31;102529.22;;;3.37;100.00
47897;BME280;39629;51.400;5.494;2023-02-19T22:46:33;102530.16;;;3.39;100.00
47897;BME280;39629;51.400;5.494;2023-02-19T22:51:35;102525.44;;;3.32;100.00
47897;BME280;39629;51.400;5.494;2023-02-19T22:56:38;102530.56;;;3.31;100.00
47897;BME280;39629;51.400;5.494;2023-02-19T23:01:39;102530.72;;;3.34;100.00
47897;BME280;39629;51.400;5.494;2023-02-19T23:06:42;102503.97;;;3.36;100.00
47897;BME280;39629;51.400;5.494;2023-02-19T23:11:46;102508.91;;;3.32;100.00
47897;BME280;39629;51.400;5.494;2023-02-19T23:16:47;102509.34;;;3.39;100.00
47897;BME280;39629;51.400;5.494;2023-02-19T23:21:49;102511.78;;;3.36;100.00
47897;BME280;39629;51.400;5.494;2023-02-19T23:26:52;102503.06;;;3.36;100.00
47897;BME280;39629;51.400;5.494;2023-02-19T23:31:54;102505.44;;;3.31;100.00
47897;BME280;39629;51.400;5.494;2023-02-19T23:36:55;102490.47;;;3.44;100.00
47897;BME280;39629;51.400;5.494;2023-02-19T23:42:00;102493.50;;;3.51;100.00
47897;BME280;39629;51.400;5.494;2023-02-19T23:47:01;102465.66;;;3.50;100.00
47897;BME280;39629;51.400;5.494;2023-02-19T23:52:03;102462.13;;;3.66;100.00
47897;BME280;39629;51.400;5.494;2023-02-19T23:57:06;102446.59;;;3.68;100.00
